createdAt,value
2022-10-30T00:00:59.462Z,996.34
2022-10-30T00:01:59.583Z,996.37
2022-10-30T00:02:59.964Z,996.33
2022-10-30T00:03:59.427Z,996.34
2022-10-30T00:04:59.431Z,996.35
2022-10-30T00:05:59.429Z,996.33
2022-10-30T00:06:59.426Z,996.28
2022-10-30T00:07:59.728Z,996.28
2022-10-30T00:08:59.397Z,996.36
2022-10-30T00:09:59.411Z,996.29
2022-10-30T00:10:59.383Z,996.26
2022-10-30T00:11:59.377Z,996.24
2022-10-30T00:12:59.366Z,996.26
2022-10-30T00:13:59.358Z,996.25
2022-10-30T00:14:59.385Z,996.21
2022-10-30T00:15:59.342Z,996.22
2022-10-30T00:16:59.342Z,996.25
2022-10-30T00:17:59.860Z,996.18
2022-10-30T00:18:59.315Z,996.14
2022-10-30T00:19:59.315Z,996.18
2022-10-30T00:20:59.332Z,996.13
2022-10-30T00:22:44.537Z,996.10
2022-10-30T00:23:45.650Z,996.14
2022-10-30T00:24:45.641Z,996.10
2022-10-30T00:25:45.634Z,996.11
2022-10-30T00:26:45.636Z,996.13
2022-10-30T00:27:45.610Z,996.12
2022-10-30T00:28:45.601Z,996.18
2022-10-30T00:29:45.606Z,996.11
2022-10-30T00:30:45.625Z,996.12
2022-10-30T00:31:45.590Z,996.15
2022-10-30T00:32:45.587Z,996.10
2022-10-30T00:33:45.586Z,996.09
2022-10-30T00:34:45.574Z,996.13
2022-10-30T00:36:45.558Z,996.07
2022-10-30T00:37:45.543Z,996.16
2022-10-30T00:38:45.537Z,996.11
2022-10-30T00:39:45.539Z,996.13
2022-10-30T00:40:45.531Z,996.09
2022-10-30T00:41:45.525Z,996.13
2022-10-30T00:42:45.517Z,996.09
2022-10-30T00:43:45.517Z,996.08
2022-10-30T00:44:45.501Z,996.09
2022-10-30T00:45:45.499Z,996.06
2022-10-30T00:46:45.503Z,996.07
2022-10-30T00:47:45.482Z,996.05
2022-10-30T00:48:45.478Z,996.02
2022-10-30T00:49:45.471Z,996.01
2022-10-30T00:50:45.470Z,996.00
2022-10-30T00:51:45.470Z,996.02
2022-10-30T00:52:45.455Z,996.04
2022-10-30T00:53:45.450Z,995.97
2022-10-30T00:54:45.443Z,995.99
2022-10-30T00:55:45.435Z,995.95
2022-10-30T00:56:45.430Z,995.88
2022-10-30T00:57:45.427Z,995.84
2022-10-30T00:58:45.422Z,995.90
2022-10-30T00:59:45.402Z,995.90
2022-10-30T01:00:45.395Z,995.83
2022-10-30T01:01:45.523Z,995.84
2022-10-30T01:02:45.462Z,995.86
2022-10-30T01:03:45.374Z,995.92
2022-10-30T01:04:45.374Z,995.94
2022-10-30T01:05:45.362Z,995.94
2022-10-30T01:06:45.422Z,995.91
2022-10-30T01:07:45.357Z,995.97
2022-10-30T01:08:45.443Z,995.98
2022-10-30T01:09:45.316Z,995.97
2022-10-30T01:10:45.321Z,995.98
2022-10-30T01:11:45.358Z,995.96
2022-10-30T01:12:45.353Z,996.01
2022-10-30T01:13:45.297Z,996.07
2022-10-30T01:14:45.293Z,996.04
2022-10-30T01:15:45.286Z,996.01
2022-10-30T01:16:45.282Z,996.07
2022-10-30T01:17:45.294Z,996.07
2022-10-30T01:18:45.264Z,996.03
2022-10-30T01:19:45.252Z,996.11
2022-10-30T01:20:45.251Z,996.06
2022-10-30T01:21:45.241Z,996.04
2022-10-30T01:22:45.256Z,995.98
2022-10-30T01:23:45.225Z,996.01
2022-10-30T01:24:46.221Z,995.97
2022-10-30T01:25:45.213Z,995.97
2022-10-30T01:26:45.213Z,995.92
2022-10-30T01:27:45.204Z,995.89
2022-10-30T01:28:45.189Z,995.86
2022-10-30T01:29:45.193Z,995.89
2022-10-30T01:30:45.209Z,995.91
2022-10-30T01:31:45.174Z,995.85
2022-10-30T01:32:45.180Z,995.87
2022-10-30T01:33:45.157Z,995.84
2022-10-30T01:34:45.166Z,995.77
2022-10-30T01:35:45.139Z,995.80
2022-10-30T01:36:45.137Z,995.78
2022-10-30T01:37:45.138Z,995.76
2022-10-30T01:38:45.135Z,995.78
2022-10-30T01:39:45.117Z,995.73
2022-10-30T01:40:45.110Z,995.72
2022-10-30T01:41:45.106Z,995.71
2022-10-30T01:42:45.091Z,995.67
2022-10-30T01:43:45.110Z,995.74
2022-10-30T01:44:45.086Z,995.69
2022-10-30T01:45:45.077Z,995.73
2022-10-30T01:46:45.060Z,995.70
2022-10-30T01:47:45.056Z,995.68
2022-10-30T01:48:45.056Z,995.70
2022-10-30T01:49:45.051Z,995.67
2022-10-30T01:50:45.053Z,995.69
2022-10-30T01:51:45.028Z,995.63
2022-10-30T01:52:45.027Z,995.67
2022-10-30T01:53:45.021Z,995.65
2022-10-30T01:54:45.020Z,995.67
2022-10-30T01:55:45.005Z,995.64
2022-10-30T01:56:45.004Z,995.62
2022-10-30T01:57:45.001Z,995.63
2022-10-30T01:58:44.974Z,995.63
2022-10-30T01:59:44.976Z,995.66
2022-10-30T02:00:44.965Z,995.62
2022-10-30T02:01:45.069Z,995.64
2022-10-30T02:02:45.004Z,995.61
2022-10-30T02:03:44.958Z,995.64
2022-10-30T02:04:44.948Z,995.65
2022-10-30T02:05:44.944Z,995.64
2022-10-30T02:06:44.944Z,995.64
2022-10-30T02:07:44.931Z,995.74
2022-10-30T02:08:44.919Z,995.73
2022-10-30T02:09:44.930Z,995.69
2022-10-30T02:10:44.907Z,995.70
2022-10-30T02:11:44.903Z,995.66
2022-10-30T02:12:44.887Z,995.67
2022-10-30T02:13:44.886Z,995.68
2022-10-30T02:14:44.875Z,995.73
2022-10-30T02:15:44.874Z,995.69
2022-10-30T02:16:44.862Z,995.73
2022-10-30T02:17:44.870Z,995.69
2022-10-30T02:19:44.857Z,995.63
2022-10-30T02:20:44.851Z,995.62
2022-10-30T02:21:44.834Z,995.69
2022-10-30T02:22:44.891Z,995.66
2022-10-30T02:23:44.830Z,995.72
2022-10-30T02:24:44.818Z,995.70
2022-10-30T02:25:44.806Z,995.71
2022-10-30T02:26:44.807Z,995.73
2022-10-30T02:27:44.819Z,995.77
2022-10-30T02:28:45.390Z,995.79
2022-10-30T02:29:44.782Z,995.83
2022-10-30T02:30:44.771Z,995.80
2022-10-30T02:31:44.770Z,995.78
2022-10-30T02:32:44.767Z,995.68
2022-10-30T02:33:44.786Z,995.75
2022-10-30T02:34:44.750Z,995.74
2022-10-30T02:35:44.751Z,995.65
2022-10-30T02:36:44.737Z,995.68
2022-10-30T02:37:44.725Z,995.70
2022-10-30T02:38:44.742Z,995.62
2022-10-30T02:39:44.711Z,995.68
2022-10-30T02:40:44.707Z,995.56
2022-10-30T02:41:44.702Z,995.58
2022-10-30T02:42:44.686Z,995.61
2022-10-30T02:43:44.680Z,995.69
2022-10-30T02:44:44.689Z,995.70
2022-10-30T02:45:44.667Z,995.76
2022-10-30T02:46:44.662Z,995.73
2022-10-30T02:47:44.655Z,995.68
2022-10-30T02:48:44.659Z,995.76
2022-10-30T02:49:44.652Z,995.80
2022-10-30T02:50:44.638Z,995.80
2022-10-30T02:51:44.635Z,995.80
2022-10-30T02:52:44.622Z,995.84
2022-10-30T02:53:44.634Z,995.81
2022-10-30T02:54:44.611Z,995.87
2022-10-30T02:55:44.605Z,995.86
2022-10-30T02:56:44.602Z,995.83
2022-10-30T02:57:44.583Z,995.85
2022-10-30T02:58:44.608Z,995.94
2022-10-30T02:59:44.573Z,995.89
2022-10-30T03:00:44.567Z,995.85
2022-10-30T03:01:44.651Z,995.92
2022-10-30T03:02:44.586Z,995.89
2022-10-30T03:03:44.555Z,995.93
2022-10-30T03:04:44.552Z,995.89
2022-10-30T03:05:44.534Z,995.90
2022-10-30T03:06:44.534Z,995.91
2022-10-30T03:07:44.524Z,995.94
2022-10-30T03:08:44.509Z,995.94
2022-10-30T03:09:44.530Z,995.95
2022-10-30T03:10:44.498Z,995.90
2022-10-30T03:11:44.495Z,995.90
2022-10-30T03:12:44.487Z,995.90
2022-10-30T03:13:44.494Z,995.91
2022-10-30T03:14:44.478Z,995.85
2022-10-30T03:15:44.461Z,995.87
2022-10-30T03:16:44.459Z,995.85
2022-10-30T03:17:44.446Z,995.86
2022-10-30T03:18:44.446Z,995.95
2022-10-30T03:19:44.439Z,995.88
2022-10-30T03:20:44.442Z,995.82
2022-10-30T03:21:44.430Z,995.85
2022-10-30T03:22:44.418Z,995.89
2022-10-30T03:23:44.405Z,995.85
2022-10-30T03:24:44.397Z,995.85
2022-10-30T03:25:44.415Z,995.90
2022-10-30T03:26:44.377Z,995.86
2022-10-30T03:27:44.374Z,995.87
2022-10-30T03:28:44.375Z,995.87
2022-10-30T03:29:44.370Z,995.89
2022-10-30T03:30:44.354Z,995.87
2022-10-30T03:31:44.367Z,995.88
2022-10-30T03:32:44.351Z,995.94
2022-10-30T03:33:44.341Z,995.91
2022-10-30T03:34:44.338Z,995.87
2022-10-30T03:35:44.334Z,995.92
2022-10-30T03:36:44.322Z,995.91
2022-10-30T03:37:44.315Z,995.97
2022-10-30T03:38:44.329Z,995.96
2022-10-30T03:39:44.303Z,995.98
2022-10-30T03:40:44.290Z,995.94
2022-10-30T03:41:44.268Z,995.94
2022-10-30T03:42:44.270Z,995.95
2022-10-30T03:43:44.287Z,995.96
2022-10-30T03:44:44.252Z,995.97
2022-10-30T03:45:44.260Z,995.95
2022-10-30T03:46:44.250Z,995.93
2022-10-30T03:47:44.245Z,995.92
2022-10-30T03:48:44.233Z,995.90
2022-10-30T03:49:44.232Z,995.86
2022-10-30T03:50:44.234Z,995.92
2022-10-30T03:51:44.219Z,995.85
2022-10-30T03:52:44.201Z,995.84
2022-10-30T03:53:44.206Z,995.84
2022-10-30T03:54:44.195Z,995.85
2022-10-30T03:55:44.203Z,995.81
2022-10-30T03:56:44.177Z,995.83
2022-10-30T03:57:44.170Z,995.85
2022-10-30T03:58:44.171Z,995.86
2022-10-30T03:59:44.165Z,995.85
2022-10-30T04:00:44.168Z,995.85
2022-10-30T04:01:44.366Z,995.83
2022-10-30T04:02:44.150Z,995.84
2022-10-30T04:03:44.130Z,995.77
2022-10-30T04:04:44.133Z,995.82
2022-10-30T04:05:44.146Z,995.80
2022-10-30T04:06:44.122Z,995.89
2022-10-30T04:07:44.113Z,995.88
2022-10-30T04:08:44.109Z,995.84
2022-10-30T04:09:44.106Z,995.89
2022-10-30T04:10:44.161Z,995.89
2022-10-30T04:11:44.108Z,995.85
2022-10-30T04:12:44.083Z,995.84
2022-10-30T04:13:44.083Z,995.88
2022-10-30T04:14:44.069Z,995.88
2022-10-30T04:15:44.066Z,995.80
2022-10-30T04:16:44.073Z,995.83
2022-10-30T04:17:44.078Z,995.82
2022-10-30T04:18:44.037Z,995.88
2022-10-30T04:19:44.044Z,995.83
2022-10-30T04:20:44.040Z,995.85
2022-10-30T04:21:44.021Z,995.85
2022-10-30T04:22:44.029Z,995.88
2022-10-30T04:23:44.018Z,995.88
2022-10-30T04:24:44.021Z,995.79
2022-10-30T04:25:44.003Z,995.87
2022-10-30T04:26:43.994Z,995.90
2022-10-30T04:27:43.985Z,995.88
2022-10-30T04:28:43.990Z,995.92
2022-10-30T04:29:43.981Z,995.93
2022-10-30T04:30:43.977Z,995.89
2022-10-30T04:31:43.969Z,995.90
2022-10-30T04:32:43.945Z,995.87
2022-10-30T04:33:43.960Z,995.88
2022-10-30T04:34:43.945Z,995.82
2022-10-30T04:35:43.948Z,995.81
2022-10-30T04:36:43.923Z,995.90
2022-10-30T04:37:44.934Z,995.87
2022-10-30T04:38:43.927Z,995.92
2022-10-30T04:39:46.316Z,995.82
2022-10-30T04:40:43.905Z,995.87
2022-10-30T04:41:43.897Z,995.86
2022-10-30T04:42:43.913Z,995.84
2022-10-30T04:43:43.882Z,995.90
2022-10-30T04:44:43.875Z,995.84
2022-10-30T04:45:43.883Z,995.84
2022-10-30T04:46:43.878Z,995.88
2022-10-30T04:47:43.873Z,995.86
2022-10-30T04:48:43.866Z,995.91
2022-10-30T04:49:43.842Z,995.88
2022-10-30T04:50:43.887Z,995.91
2022-10-30T04:51:43.857Z,995.96
2022-10-30T04:52:43.821Z,995.90
2022-10-30T04:53:43.855Z,995.84
2022-10-30T04:54:43.814Z,995.90
2022-10-30T04:55:44.813Z,995.92
2022-10-30T04:56:43.808Z,995.91
2022-10-30T04:57:43.808Z,995.87
2022-10-30T04:58:43.805Z,995.86
2022-10-30T04:59:43.772Z,995.83
2022-10-30T05:00:44.780Z,995.84
2022-10-30T05:01:43.846Z,995.86
2022-10-30T05:03:43.771Z,995.92
2022-10-30T05:04:43.744Z,995.91
2022-10-30T05:05:43.738Z,995.93
2022-10-30T05:06:43.742Z,995.89
2022-10-30T05:07:43.748Z,995.93
2022-10-30T05:08:43.734Z,995.95
2022-10-30T05:09:43.729Z,995.92
2022-10-30T05:10:43.721Z,995.92
2022-10-30T05:11:43.733Z,995.99
2022-10-30T05:12:43.708Z,995.97
2022-10-30T05:13:43.731Z,995.90
2022-10-30T05:14:43.685Z,995.92
2022-10-30T05:15:43.681Z,995.87
2022-10-30T05:16:43.671Z,995.88
2022-10-30T05:17:43.657Z,995.90
2022-10-30T05:18:43.679Z,995.92
2022-10-30T05:19:43.671Z,995.93
2022-10-30T05:20:43.649Z,995.89
2022-10-30T05:21:43.637Z,995.95
2022-10-30T05:22:43.629Z,995.92
2022-10-30T05:23:43.636Z,995.89
2022-10-30T05:24:43.629Z,995.87
2022-10-30T05:25:43.620Z,995.92
2022-10-30T05:26:43.608Z,995.90
2022-10-30T05:27:43.601Z,995.87
2022-10-30T05:28:43.590Z,995.83
2022-10-30T05:29:43.594Z,995.86
2022-10-30T05:30:43.588Z,995.89
2022-10-30T05:31:43.573Z,995.85
2022-10-30T05:32:43.649Z,995.91
2022-10-30T05:33:43.601Z,995.87
2022-10-30T05:34:43.576Z,995.83
2022-10-30T05:35:43.553Z,995.87
2022-10-30T05:36:43.558Z,995.86
2022-10-30T05:37:43.542Z,995.90
2022-10-30T05:38:43.540Z,995.88
2022-10-30T05:39:43.551Z,995.85
2022-10-30T05:40:43.573Z,995.89
2022-10-30T05:41:43.535Z,995.88
2022-10-30T05:42:43.531Z,995.85
2022-10-30T05:43:43.513Z,995.91
2022-10-30T05:45:02.613Z,995.87
2022-10-30T05:45:45.488Z,995.92
2022-10-30T05:46:43.552Z,995.92
2022-10-30T05:47:43.476Z,995.92
2022-10-30T05:48:43.477Z,995.91
2022-10-30T05:49:43.472Z,995.98
2022-10-30T05:50:43.472Z,995.95
2022-10-30T05:51:43.452Z,995.99
2022-10-30T05:52:43.440Z,995.92
2022-10-30T05:53:43.436Z,995.90
2022-10-30T05:54:43.441Z,995.91
2022-10-30T05:55:43.437Z,995.95
2022-10-30T05:56:43.425Z,995.88
2022-10-30T05:57:43.417Z,995.92
2022-10-30T05:58:43.388Z,995.92
2022-10-30T05:59:43.388Z,995.90
2022-10-30T06:00:43.392Z,995.92
2022-10-30T06:02:43.502Z,995.93
2022-10-30T06:03:43.368Z,995.92
2022-10-30T06:04:43.364Z,995.88
2022-10-30T06:05:43.359Z,995.92
2022-10-30T06:06:43.361Z,995.93
2022-10-30T06:07:43.340Z,995.96
2022-10-30T06:08:43.342Z,995.94
2022-10-30T06:09:43.327Z,995.92
2022-10-30T06:10:43.328Z,995.98
2022-10-30T06:11:43.327Z,995.93
2022-10-30T06:12:43.313Z,995.92
2022-10-30T06:13:43.314Z,995.95
2022-10-30T06:14:43.295Z,995.92
2022-10-30T06:15:43.292Z,995.97
2022-10-30T06:16:43.285Z,995.95
2022-10-30T06:17:43.281Z,995.96
2022-10-30T06:18:43.281Z,995.95
2022-10-30T06:19:43.262Z,995.98
2022-10-30T06:20:43.257Z,995.94
2022-10-30T06:21:43.262Z,995.97
2022-10-30T06:22:43.252Z,995.96
2022-10-30T06:23:43.232Z,995.93
2022-10-30T06:24:43.232Z,995.95
2022-10-30T06:25:43.224Z,995.92
2022-10-30T06:26:43.220Z,995.89
2022-10-30T06:27:43.233Z,995.91
2022-10-30T06:28:43.208Z,995.95
2022-10-30T06:29:43.199Z,995.98
2022-10-30T06:30:43.192Z,995.97
2022-10-30T06:31:43.195Z,995.96
2022-10-30T06:32:43.208Z,995.95
2022-10-30T06:33:43.204Z,996.01
2022-10-30T06:34:43.192Z,995.95
2022-10-30T06:35:43.147Z,995.96
2022-10-30T06:36:43.255Z,995.99
2022-10-30T06:37:43.152Z,995.99
2022-10-30T06:38:43.154Z,995.98
2022-10-30T06:39:43.153Z,996.01
2022-10-30T06:40:43.129Z,996.04
2022-10-30T06:41:43.125Z,996.11
2022-10-30T06:42:43.121Z,996.09
2022-10-30T06:43:43.114Z,996.05
2022-10-30T06:44:43.096Z,996.10
2022-10-30T06:45:43.099Z,996.08
2022-10-30T06:46:44.093Z,996.06
2022-10-30T06:47:43.106Z,996.10
2022-10-30T06:48:43.092Z,996.05
2022-10-30T06:49:43.071Z,996.05
2022-10-30T06:50:43.066Z,996.06
2022-10-30T06:51:43.065Z,996.00
2022-10-30T06:52:43.052Z,996.12
2022-10-30T06:53:43.081Z,996.12
2022-10-30T06:54:43.046Z,996.10
2022-10-30T06:55:43.034Z,996.08
2022-10-30T06:56:43.025Z,996.16
2022-10-30T06:57:43.027Z,996.14
2022-10-30T06:58:43.035Z,996.23
2022-10-30T06:59:43.005Z,996.23
2022-10-30T07:00:43.041Z,996.23
2022-10-30T07:01:43.052Z,996.23
2022-10-30T07:02:42.989Z,996.25
2022-10-30T07:03:42.986Z,996.19
2022-10-30T07:04:42.994Z,996.23
2022-10-30T07:05:42.969Z,996.26
2022-10-30T07:06:42.965Z,996.22
2022-10-30T07:07:43.034Z,996.16
2022-10-30T07:08:42.958Z,996.14
2022-10-30T07:09:43.973Z,996.26
2022-10-30T07:10:42.929Z,996.24
2022-10-30T07:11:42.925Z,996.27
2022-10-30T07:12:42.927Z,996.24
2022-10-30T07:13:42.929Z,996.25
2022-10-30T07:14:42.925Z,996.28
2022-10-30T07:16:42.895Z,996.25
2022-10-30T07:17:42.890Z,996.26
2022-10-30T07:18:42.894Z,996.23
2022-10-30T07:19:42.877Z,996.16
2022-10-30T07:20:42.890Z,996.26
2022-10-30T07:21:42.864Z,996.28
2022-10-30T07:22:42.861Z,996.25
2022-10-30T07:23:42.860Z,996.28
2022-10-30T07:24:42.847Z,996.30
2022-10-30T07:25:42.906Z,996.23
2022-10-30T07:26:42.846Z,996.27
2022-10-30T07:27:42.829Z,996.34
2022-10-30T07:28:42.814Z,996.37
2022-10-30T07:29:42.818Z,996.25
2022-10-30T07:30:42.833Z,996.31
2022-10-30T07:31:50.006Z,996.32
2022-10-30T07:32:43.796Z,996.28
2022-10-30T07:33:42.785Z,996.19
2022-10-30T07:34:42.779Z,996.25
2022-10-30T07:35:42.785Z,996.24
2022-10-30T07:36:42.765Z,996.24
2022-10-30T07:37:42.749Z,996.16
2022-10-30T07:38:42.748Z,996.16
2022-10-30T07:39:42.741Z,996.17
2022-10-30T07:40:42.734Z,996.20
2022-10-30T07:41:47.345Z,996.22
2022-10-30T07:42:44.715Z,996.21
2022-10-30T07:43:42.708Z,996.19
2022-10-30T07:44:42.708Z,996.20
2022-10-30T07:45:42.702Z,996.23
2022-10-30T07:46:42.699Z,996.23
2022-10-30T07:47:42.692Z,996.19
2022-10-30T07:48:42.674Z,996.21
2022-10-30T07:49:42.658Z,996.28
2022-10-30T07:50:42.654Z,996.25
2022-10-30T07:51:42.646Z,996.28
2022-10-30T07:52:42.651Z,996.28
2022-10-30T07:53:42.639Z,996.28
2022-10-30T07:54:42.627Z,996.24
2022-10-30T07:55:42.618Z,996.29
2022-10-30T07:56:42.602Z,996.26
2022-10-30T07:57:42.686Z,996.27
2022-10-30T07:58:45.437Z,996.29
2022-10-30T07:59:43.637Z,996.31
2022-10-30T08:00:42.581Z,996.27
2022-10-30T08:01:42.668Z,996.28
2022-10-30T08:02:42.738Z,996.31
2022-10-30T08:03:42.558Z,996.28
2022-10-30T08:04:42.563Z,996.31
2022-10-30T08:05:42.546Z,996.30
2022-10-30T08:06:42.531Z,996.24
2022-10-30T08:07:42.522Z,996.28
2022-10-30T08:08:43.583Z,996.25
2022-10-30T08:09:43.526Z,996.29
2022-10-30T08:10:43.367Z,996.28
2022-10-30T08:11:42.507Z,996.31
2022-10-30T08:12:42.486Z,996.26
2022-10-30T08:13:42.475Z,996.19
2022-10-30T08:14:42.470Z,996.23
2022-10-30T08:15:42.465Z,996.18
2022-10-30T08:16:42.471Z,996.25
2022-10-30T08:17:42.454Z,996.16
2022-10-30T08:18:42.584Z,996.17
2022-10-30T08:19:42.438Z,996.19
2022-10-30T08:20:42.478Z,996.17
2022-10-30T08:21:42.453Z,996.21
2022-10-30T08:22:42.435Z,996.17
2022-10-30T08:23:42.413Z,996.15
2022-10-30T08:24:42.402Z,996.13
2022-10-30T08:25:42.395Z,996.15
2022-10-30T08:26:42.388Z,996.16
2022-10-30T08:27:42.391Z,996.13
2022-10-30T08:28:42.390Z,996.11
2022-10-30T08:29:42.374Z,996.07
2022-10-30T08:30:42.387Z,996.05
2022-10-30T08:31:42.356Z,996.09
2022-10-30T08:32:42.350Z,996.01
2022-10-30T08:33:42.355Z,996.00
2022-10-30T08:34:42.342Z,996.00
2022-10-30T08:35:42.330Z,995.96
2022-10-30T08:36:44.074Z,995.98
2022-10-30T08:37:42.307Z,995.90
2022-10-30T08:38:42.314Z,995.87
2022-10-30T08:39:42.291Z,995.82
2022-10-30T08:40:42.295Z,995.84
2022-10-30T08:41:42.275Z,995.81
2022-10-30T08:42:42.273Z,995.80
2022-10-30T08:43:42.275Z,995.79
2022-10-30T08:44:42.254Z,995.82
2022-10-30T08:45:42.278Z,995.82
2022-10-30T08:46:42.249Z,995.84
2022-10-30T08:47:42.240Z,995.84
2022-10-30T08:48:42.226Z,995.88
2022-10-30T08:49:42.229Z,995.89
2022-10-30T08:50:43.224Z,995.84
2022-10-30T08:51:42.222Z,995.83
2022-10-30T08:52:42.206Z,995.83
2022-10-30T08:53:42.197Z,995.80
2022-10-30T08:54:42.202Z,995.76
2022-10-30T08:55:42.203Z,995.85
2022-10-30T08:56:42.165Z,995.81
2022-10-30T08:57:43.174Z,995.86
2022-10-30T08:58:42.198Z,995.82
2022-10-30T08:59:42.162Z,995.86
2022-10-30T09:00:42.158Z,995.91
2022-10-30T09:01:42.276Z,995.91
2022-10-30T09:02:42.259Z,995.94
2022-10-30T09:03:42.140Z,995.94
2022-10-30T09:04:42.130Z,996.03
2022-10-30T09:05:42.139Z,995.99
2022-10-30T09:06:42.119Z,995.96
2022-10-30T09:07:42.109Z,995.95
2022-10-30T09:08:42.087Z,996.08
2022-10-30T09:09:42.093Z,995.97
2022-10-30T09:10:42.105Z,996.03
2022-10-30T09:11:42.080Z,995.99
2022-10-30T09:12:42.066Z,996.03
2022-10-30T09:13:42.067Z,996.00
2022-10-30T09:14:42.061Z,995.95
2022-10-30T09:15:42.045Z,995.94
2022-10-30T09:16:42.075Z,995.93
2022-10-30T09:17:42.051Z,995.90
2022-10-30T09:18:42.021Z,995.89
2022-10-30T09:19:42.061Z,995.92
2022-10-30T09:20:42.022Z,995.93
2022-10-30T09:21:42.024Z,995.97
2022-10-30T09:22:42.012Z,995.96
2022-10-30T09:23:42.002Z,995.94
2022-10-30T09:24:42.042Z,995.95
2022-10-30T09:25:41.994Z,995.84
2022-10-30T09:26:41.976Z,995.80
2022-10-30T09:27:41.977Z,995.72
2022-10-30T09:28:41.977Z,995.70
2022-10-30T09:29:41.971Z,995.62
2022-10-30T09:30:41.958Z,995.57
2022-10-30T09:31:41.964Z,995.52
2022-10-30T09:32:41.956Z,995.53
2022-10-30T09:33:41.942Z,995.42
2022-10-30T09:34:41.933Z,995.43
2022-10-30T09:35:41.961Z,995.35
2022-10-30T09:36:41.924Z,995.33
2022-10-30T09:37:41.958Z,995.29
2022-10-30T09:38:41.925Z,995.31
2022-10-30T09:39:41.901Z,995.35
2022-10-30T09:40:41.894Z,995.33
2022-10-30T09:41:43.797Z,995.25
2022-10-30T09:42:42.883Z,995.24
2022-10-30T09:43:41.886Z,995.22
2022-10-30T09:44:45.853Z,995.28
2022-10-30T09:45:41.882Z,995.25
2022-10-30T09:46:41.865Z,995.34
2022-10-30T09:47:41.859Z,995.33
2022-10-30T09:48:41.851Z,995.28
2022-10-30T09:49:41.845Z,995.33
2022-10-30T09:50:41.853Z,995.34
2022-10-30T09:51:41.835Z,995.35
2022-10-30T09:52:41.814Z,995.40
2022-10-30T09:53:41.852Z,995.37
2022-10-30T09:54:41.828Z,995.31
2022-10-30T09:55:41.794Z,995.32
2022-10-30T09:56:42.797Z,995.33
2022-10-30T09:57:41.809Z,995.34
2022-10-30T09:58:41.793Z,995.33
2022-10-30T09:59:41.821Z,995.32
2022-10-30T10:00:41.784Z,995.35
2022-10-30T10:01:42.065Z,995.25
2022-10-30T10:02:41.979Z,995.27
2022-10-30T10:03:41.864Z,995.29
2022-10-30T10:04:41.757Z,995.20
2022-10-30T10:05:41.774Z,995.26
2022-10-30T10:06:41.909Z,995.22
2022-10-30T10:07:41.735Z,995.27
2022-10-30T10:08:41.736Z,995.11
2022-10-30T10:09:41.780Z,995.20
2022-10-30T10:10:41.734Z,995.21
2022-10-30T10:11:41.719Z,995.18
2022-10-30T10:12:41.715Z,995.18
2022-10-30T10:13:41.738Z,995.25
2022-10-30T10:14:41.676Z,995.17
2022-10-30T10:15:41.746Z,995.24
2022-10-30T10:16:41.783Z,995.19
2022-10-30T10:17:41.725Z,995.14
2022-10-30T10:18:41.669Z,995.16
2022-10-30T10:19:41.727Z,995.18
2022-10-30T10:20:41.692Z,995.17
2022-10-30T10:21:41.697Z,995.10
2022-10-30T10:22:41.662Z,995.10
2022-10-30T10:23:41.657Z,995.13
2022-10-30T10:24:41.629Z,995.15
2022-10-30T10:25:41.664Z,995.13
2022-10-30T10:26:41.618Z,995.23
2022-10-30T10:27:41.680Z,995.08
2022-10-30T10:28:41.634Z,995.17
2022-10-30T10:29:41.649Z,995.19
2022-10-30T10:30:41.667Z,995.16
2022-10-30T10:31:41.587Z,995.19
2022-10-30T10:32:41.630Z,995.22
2022-10-30T10:33:41.581Z,995.19
2022-10-30T10:34:41.590Z,995.19
2022-10-30T10:35:41.661Z,995.24
2022-10-30T10:36:41.609Z,995.19
2022-10-30T10:37:41.581Z,995.13
2022-10-30T10:38:41.649Z,995.20
2022-10-30T10:39:41.545Z,995.16
2022-10-30T10:40:41.533Z,995.24
2022-10-30T10:41:41.527Z,995.15
2022-10-30T10:42:41.553Z,995.08
2022-10-30T10:43:41.529Z,995.11
2022-10-30T10:44:41.520Z,995.12
2022-10-30T10:45:41.570Z,995.23
2022-10-30T10:46:41.542Z,995.23
2022-10-30T10:47:41.514Z,995.18
2022-10-30T10:48:41.515Z,995.19
2022-10-30T10:49:41.519Z,995.22
2022-10-30T10:50:41.479Z,995.14
2022-10-30T10:51:41.494Z,995.18
2022-10-30T10:52:41.480Z,995.14
2022-10-30T10:53:41.466Z,995.14
2022-10-30T10:54:41.909Z,995.20
2022-10-30T10:55:41.501Z,995.08
2022-10-30T10:56:41.450Z,995.10
2022-10-30T10:57:41.484Z,995.16
2022-10-30T10:58:41.504Z,995.12
2022-10-30T10:59:41.451Z,995.13
2022-10-30T11:00:41.451Z,995.10
2022-10-30T11:01:41.567Z,995.09
2022-10-30T11:02:41.512Z,995.15
2022-10-30T11:03:41.415Z,995.11
2022-10-30T11:04:41.422Z,994.98
2022-10-30T11:05:41.474Z,995.00
2022-10-30T11:06:41.428Z,995.01
2022-10-30T11:07:41.404Z,995.05
2022-10-30T11:08:41.463Z,995.02
2022-10-30T11:09:41.459Z,995.08
2022-10-30T11:10:41.424Z,995.06
2022-10-30T11:11:41.427Z,995.14
2022-10-30T11:12:41.450Z,995.03
2022-10-30T11:13:41.430Z,995.06
2022-10-30T11:14:41.395Z,995.05
2022-10-30T11:15:41.363Z,994.96
2022-10-30T11:16:41.361Z,994.95
2022-10-30T11:17:41.351Z,994.91
2022-10-30T11:18:41.339Z,994.86
2022-10-30T11:19:41.331Z,994.94
2022-10-30T11:20:41.339Z,994.93
2022-10-30T11:21:41.330Z,994.87
2022-10-30T11:22:41.315Z,994.92
2022-10-30T11:23:41.953Z,994.95
2022-10-30T11:24:42.815Z,994.90
2022-10-30T11:25:41.309Z,994.85
2022-10-30T11:26:41.320Z,994.95
2022-10-30T11:27:41.303Z,994.82
2022-10-30T11:28:41.341Z,994.81
2022-10-30T11:29:41.316Z,994.74
2022-10-30T11:30:41.372Z,994.70
2022-10-30T11:31:41.357Z,994.71
2022-10-30T11:32:41.349Z,994.72
2022-10-30T11:33:41.251Z,994.71
2022-10-30T11:34:41.260Z,994.73
2022-10-30T11:35:41.251Z,994.61
2022-10-30T11:36:41.259Z,994.67
2022-10-30T11:37:41.255Z,994.73
2022-10-30T11:38:41.235Z,994.70
2022-10-30T11:39:41.230Z,994.75
2022-10-30T11:40:41.233Z,994.78
2022-10-30T11:41:41.243Z,994.76
2022-10-30T11:42:41.231Z,994.82
2022-10-30T11:43:41.212Z,994.85
2022-10-30T11:44:41.212Z,994.83
2022-10-30T11:45:41.200Z,994.76
2022-10-30T11:46:41.195Z,994.84
2022-10-30T11:47:41.201Z,994.78
2022-10-30T11:48:41.183Z,994.80
2022-10-30T11:49:41.186Z,994.80
2022-10-30T11:50:41.167Z,994.79
2022-10-30T11:51:41.232Z,994.82
2022-10-30T11:52:41.179Z,994.81
2022-10-30T11:53:41.147Z,994.75
2022-10-30T11:54:41.143Z,994.75
2022-10-30T11:55:41.148Z,994.80
2022-10-30T11:56:41.183Z,994.83
2022-10-30T11:57:41.196Z,994.81
2022-10-30T11:58:42.126Z,994.76
2022-10-30T11:59:41.891Z,994.79
2022-10-30T12:00:41.151Z,994.72
2022-10-30T12:01:41.152Z,994.76
2022-10-30T12:02:41.198Z,994.71
2022-10-30T12:03:41.116Z,994.66
2022-10-30T12:04:41.206Z,994.73
2022-10-30T12:05:44.873Z,994.67
2022-10-30T12:06:41.128Z,994.69
2022-10-30T12:07:41.203Z,994.74
2022-10-30T12:08:41.144Z,994.73
2022-10-30T12:09:41.084Z,994.67
2022-10-30T12:10:41.909Z,994.71
2022-10-30T12:11:41.056Z,994.67
2022-10-30T12:12:41.050Z,994.65
2022-10-30T12:13:41.084Z,994.66
2022-10-30T12:14:41.043Z,994.60
2022-10-30T12:15:41.079Z,994.59
2022-10-30T12:16:41.019Z,994.58
2022-10-30T12:17:41.022Z,994.57
2022-10-30T12:18:41.018Z,994.61
2022-10-30T12:19:41.012Z,994.60
2022-10-30T12:20:41.058Z,994.59
2022-10-30T12:21:40.998Z,994.59
2022-10-30T12:22:41.039Z,994.58
2022-10-30T12:23:41.011Z,994.61
2022-10-30T12:24:41.008Z,994.57
2022-10-30T12:25:40.959Z,994.50
2022-10-30T12:26:41.026Z,994.50
2022-10-30T12:27:40.979Z,994.44
2022-10-30T12:28:41.017Z,994.48
2022-10-30T12:30:06.924Z,994.45
2022-10-30T12:30:42.943Z,994.41
2022-10-30T12:31:40.951Z,994.44
2022-10-30T12:32:40.962Z,994.51
2022-10-30T12:33:41.003Z,994.47
2022-10-30T12:34:40.958Z,994.51